sensor_id;sensor_type;location;lat;lon;timestamp;P1;durP1;ratioP1;P2;durP2;ratioP2
705;SDS011;21234;48.690;9.016;2024-03-22T00:02:08;4.30;;;3.80;;
705;SDS011;21234;48.690;9.016;2024-03-22T00:04:35;5.03;;;3.83;;
705;SDS011;21234;48.690;9.016;2024-03-22T00:07:00;8.37;;;5.23;;
705;SDS011;21234;48.690;9.016;2024-03-22T00:09:28;6.13;;;4.57;;
705;SDS011;21234;48.690;9.016;2024-03-22T00:11:53;5.63;;;5.03;;
705;SDS011;21234;48.690;9.016;2024-03-22T00:14:20;5.90;;;4.33;;
705;SDS011;21234;48.690;9.016;2024-03-22T00:16:46;6.17;;;4.80;;
705;SDS011;21234;48.690;9.016;2024-03-22T00:19:14;7.37;;;4.70;;
705;SDS011;21234;48.690;9.016;2024-03-22T00:21:40;9.53;;;4.27;;
705;SDS011;21234;48.690;9.016;2024-03-22T00:24:07;5.53;;;3.80;;
705;SDS011;21234;48.690;9.016;2024-03-22T00:26:32;5.00;;;3.70;;
705;SDS011;21234;48.690;9.016;2024-03-22T00:28:59;10.83;;;5.07;;
705;SDS011;21234;48.690;9.016;2024-03-22T00:31:25;6.43;;;5.43;;
705;SDS011;21234;48.690;9.016;2024-03-22T00:33:52;5.33;;;4.57;;
705;SDS011;21234;48.690;9.016;2024-03-22T00:36:19;7.40;;;4.90;;
705;SDS011;21234;48.690;9.016;2024-03-22T00:38:46;7.73;;;4.97;;
705;SDS011;21234;48.690;9.016;2024-03-22T00:41:12;4.70;;;3.70;;
705;SDS011;21234;48.690;9.016;2024-03-22T00:43:38;6.20;;;4.00;;
705;SDS011;21234;48.690;9.016;2024-03-22T00:46:04;5.07;;;4.60;;
705;SDS011;21234;48.690;9.016;2024-03-22T00:48:31;4.83;;;4.20;;
705;SDS011;21234;48.690;9.016;2024-03-22T00:50:56;4.53;;;4.13;;
705;SDS011;21234;48.690;9.016;2024-03-22T00:53:24;9.63;;;4.80;;
705;SDS011;21234;48.690;9.016;2024-03-22T00:55:50;5.07;;;3.57;;
705;SDS011;21234;48.690;9.016;2024-03-22T00:58:17;5.93;;;3.93;;
705;SDS011;21234;48.690;9.016;2024-03-22T01:00:43;3.60;;;3.30;;
705;SDS011;21234;48.690;9.016;2024-03-22T01:03:10;6.17;;;4.03;;
705;SDS011;21234;48.690;9.016;2024-03-22T01:05:36;6.30;;;5.00;;
705;SDS011;21234;48.690;9.016;2024-03-22T01:08:03;3.57;;;3.13;;
705;SDS011;21234;48.690;9.016;2024-03-22T01:10:32;4.23;;;3.83;;
705;SDS011;21234;48.690;9.016;2024-03-22T01:12:59;6.20;;;4.57;;
705;SDS011;21234;48.690;9.016;2024-03-22T01:15:25;6.13;;;4.17;;
705;SDS011;21234;48.690;9.016;2024-03-22T01:17:52;3.70;;;3.17;;
705;SDS011;21234;48.690;9.016;2024-03-22T01:20:18;4.97;;;4.50;;
705;SDS011;21234;48.690;9.016;2024-03-22T01:22:45;4.40;;;3.97;;
705;SDS011;21234;48.690;9.016;2024-03-22T01:25:10;6.53;;;3.90;;
705;SDS011;21234;48.690;9.016;2024-03-22T01:27:38;5.00;;;4.50;;
705;SDS011;21234;48.690;9.016;2024-03-22T01:30:05;4.00;;;3.17;;
705;SDS011;21234;48.690;9.016;2024-03-22T01:32:32;5.57;;;4.20;;
705;SDS011;21234;48.690;9.016;2024-03-22T01:34:58;7.07;;;3.67;;
705;SDS011;21234;48.690;9.016;2024-03-22T01:37:24;6.47;;;4.67;;
705;SDS011;21234;48.690;9.016;2024-03-22T01:39:50;5.53;;;4.97;;
705;SDS011;21234;48.690;9.016;2024-03-22T01:42:17;7.20;;;4.37;;
705;SDS011;21234;48.690;9.016;2024-03-22T01:44:44;4.10;;;3.43;;
705;SDS011;21234;48.690;9.016;2024-03-22T01:47:10;5.77;;;4.43;;
705;SDS011;21234;48.690;9.016;2024-03-22T01:49:36;5.60;;;4.23;;
705;SDS011;21234;48.690;9.016;2024-03-22T01:52:03;4.83;;;4.33;;
705;SDS011;21234;48.690;9.016;2024-03-22T01:54:30;4.97;;;4.47;;
705;SDS011;21234;48.690;9.016;2024-03-22T01:56:56;4.90;;;3.77;;
705;SDS011;21234;48.690;9.016;2024-03-22T01:59:22;6.13;;;3.90;;
705;SDS011;21234;48.690;9.016;2024-03-22T02:01:51;5.40;;;4.60;;
705;SDS011;21234;48.690;9.016;2024-03-22T02:04:17;6.00;;;3.70;;
705;SDS011;21234;48.690;9.016;2024-03-22T02:06:43;5.03;;;3.47;;
705;SDS011;21234;48.690;9.016;2024-03-22T02:09:09;4.40;;;3.80;;
705;SDS011;21234;48.690;9.016;2024-03-22T02:11:36;3.60;;;3.17;;
705;SDS011;21234;48.690;9.016;2024-03-22T02:14:02;4.73;;;3.83;;
705;SDS011;21234;48.690;9.016;2024-03-22T02:16:29;6.33;;;4.50;;
705;SDS011;21234;48.690;9.016;2024-03-22T02:18:56;6.40;;;4.40;;
705;SDS011;21234;48.690;9.016;2024-03-22T02:21:23;6.00;;;3.73;;
705;SDS011;21234;48.690;9.016;2024-03-22T02:23:50;3.53;;;2.90;;
705;SDS011;21234;48.690;9.016;2024-03-22T02:26:17;4.23;;;3.47;;
705;SDS011;21234;48.690;9.016;2024-03-22T02:28:42;5.57;;;3.60;;
705;SDS011;21234;48.690;9.016;2024-03-22T02:31:09;6.70;;;4.03;;
705;SDS011;21234;48.690;9.016;2024-03-22T02:33:35;4.70;;;3.67;;
705;SDS011;21234;48.690;9.016;2024-03-22T02:36:01;5.83;;;4.60;;
705;SDS011;21234;48.690;9.016;2024-03-22T02:38:27;6.57;;;3.83;;
705;SDS011;21234;48.690;9.016;2024-03-22T02:40:57;5.87;;;4.10;;
705;SDS011;21234;48.690;9.016;2024-03-22T02:43:23;4.17;;;3.80;;
705;SDS011;21234;48.690;9.016;2024-03-22T02:45:50;7.83;;;3.77;;
705;SDS011;21234;48.690;9.016;2024-03-22T02:48:16;5.50;;;4.33;;
705;SDS011;21234;48.690;9.016;2024-03-22T02:50:42;5.43;;;3.90;;
705;SDS011;21234;48.690;9.016;2024-03-22T02:53:08;3.60;;;2.40;;
705;SDS011;21234;48.690;9.016;2024-03-22T02:55:37;4.10;;;2.87;;
705;SDS011;21234;48.690;9.016;2024-03-22T02:58:05;4.53;;;4.00;;
705;SDS011;21234;48.690;9.016;2024-03-22T03:00:32;5.60;;;4.33;;
705;SDS011;21234;48.690;9.016;2024-03-22T03:03:01;5.43;;;4.43;;
705;SDS011;21234;48.690;9.016;2024-03-22T03:05:27;6.47;;;4.37;;
705;SDS011;21234;48.690;9.016;2024-03-22T03:07:53;5.20;;;3.53;;
705;SDS011;21234;48.690;9.016;2024-03-22T03:10:20;2.73;;;2.53;;
705;SDS011;21234;48.690;9.016;2024-03-22T03:12:45;4.80;;;3.33;;
705;SDS011;21234;48.690;9.016;2024-03-22T03:15:13;3.13;;;2.83;;
705;SDS011;21234;48.690;9.016;2024-03-22T03:17:41;3.90;;;3.33;;
705;SDS011;21234;48.690;9.016;2024-03-22T03:20:08;4.23;;;3.17;;
705;SDS011;21234;48.690;9.016;2024-03-22T03:22:38;5.10;;;4.20;;
705;SDS011;21234;48.690;9.016;2024-03-22T03:25:05;4.90;;;3.70;;
705;SDS011;21234;48.690;9.016;2024-03-22T03:27:31;4.20;;;3.67;;
705;SDS011;21234;48.690;9.016;2024-03-22T03:29:58;4.40;;;4.00;;
705;SDS011;21234;48.690;9.016;2024-03-22T03:32:25;4.67;;;3.23;;
705;SDS011;21234;48.690;9.016;2024-03-22T03:34:52;5.10;;;3.50;;
705;SDS011;21234;48.690;9.016;2024-03-22T03:37:18;4.07;;;3.53;;
705;SDS011;21234;48.690;9.016;2024-03-22T03:39:44;3.63;;;3.30;;
705;SDS011;21234;48.690;9.016;2024-03-22T03:42:11;5.13;;;3.83;;
705;SDS011;21234;48.690;9.016;2024-03-22T03:44:37;7.43;;;4.17;;
705;SDS011;21234;48.690;9.016;2024-03-22T03:47:03;4.77;;;3.73;;
705;SDS011;21234;48.690;9.016;2024-03-22T03:49:31;5.00;;;3.53;;
705;SDS011;21234;48.690;9.016;2024-03-22T03:51:57;5.50;;;3.27;;
705;SDS011;21234;48.690;9.016;2024-03-22T03:54:24;4.70;;;3.93;;
705;SDS011;21234;48.690;9.016;2024-03-22T03:56:49;4.53;;;3.37;;
705;SDS011;21234;48.690;9.016;2024-03-22T03:59:16;5.47;;;3.67;;
705;SDS011;21234;48.690;9.016;2024-03-22T04:01:42;4.17;;;2.70;;
705;SDS011;21234;48.690;9.016;2024-03-22T04:04:09;6.20;;;3.87;;
705;SDS011;21234;48.690;9.016;2024-03-22T04:06:36;8.00;;;4.33;;
705;SDS011;21234;48.690;9.016;2024-03-22T04:09:03;5.50;;;4.40;;
705;SDS011;21234;48.690;9.016;2024-03-22T04:11:29;6.57;;;4.07;;
705;SDS011;21234;48.690;9.016;2024-03-22T04:13:55;4.17;;;3.77;;
705;SDS011;21234;48.690;9.016;2024-03-22T04:16:21;3.40;;;3.10;;
705;SDS011;21234;48.690;9.016;2024-03-22T04:18:48;3.40;;;3.10;;
705;SDS011;21234;48.690;9.016;2024-03-22T04:21:13;4.60;;;4.13;;
705;SDS011;21234;48.690;9.016;2024-03-22T04:23:41;4.87;;;3.40;;
705;SDS011;21234;48.690;9.016;2024-03-22T04:26:07;4.47;;;2.80;;
705;SDS011;21234;48.690;9.016;2024-03-22T04:28:34;5.43;;;3.87;;
705;SDS011;21234;48.690;9.016;2024-03-22T04:31:00;4.87;;;3.53;;
705;SDS011;21234;48.690;9.016;2024-03-22T04:33:29;4.77;;;3.70;;
705;SDS011;21234;48.690;9.016;2024-03-22T04:35:56;5.03;;;4.13;;
705;SDS011;21234;48.690;9.016;2024-03-22T04:38:24;3.17;;;2.87;;
705;SDS011;21234;48.690;9.016;2024-03-22T04:40:52;8.63;;;4.57;;
705;SDS011;21234;48.690;9.016;2024-03-22T04:43:19;4.47;;;3.23;;
705;SDS011;21234;48.690;9.016;2024-03-22T04:45:46;5.70;;;4.20;;
705;SDS011;21234;48.690;9.016;2024-03-22T04:48:14;5.43;;;2.73;;
705;SDS011;21234;48.690;9.016;2024-03-22T04:50:41;6.27;;;4.73;;
705;SDS011;21234;48.690;9.016;2024-03-22T04:53:08;5.63;;;3.70;;
705;SDS011;21234;48.690;9.016;2024-03-22T04:55:34;3.90;;;3.50;;
705;SDS011;21234;48.690;9.016;2024-03-22T04:58:02;4.13;;;3.23;;
705;SDS011;21234;48.690;9.016;2024-03-22T05:00:28;5.00;;;2.97;;
705;SDS011;21234;48.690;9.016;2024-03-22T05:02:54;7.13;;;4.83;;
705;SDS011;21234;48.690;9.016;2024-03-22T05:05:20;3.70;;;3.00;;
705;SDS011;21234;48.690;9.016;2024-03-22T05:07:47;6.50;;;3.50;;
705;SDS011;21234;48.690;9.016;2024-03-22T05:10:13;5.77;;;4.10;;
705;SDS011;21234;48.690;9.016;2024-03-22T05:12:41;4.87;;;4.07;;
705;SDS011;21234;48.690;9.016;2024-03-22T05:15:08;3.90;;;3.47;;
705;SDS011;21234;48.690;9.016;2024-03-22T05:17:35;7.27;;;3.23;;
705;SDS011;21234;48.690;9.016;2024-03-22T05:20:01;6.73;;;3.77;;
705;SDS011;21234;48.690;9.016;2024-03-22T05:22:27;6.10;;;3.67;;
705;SDS011;21234;48.690;9.016;2024-03-22T05:24:53;5.20;;;3.40;;
705;SDS011;21234;48.690;9.016;2024-03-22T05:27:20;3.63;;;3.33;;
705;SDS011;21234;48.690;9.016;2024-03-22T05:29:46;3.30;;;3.00;;
705;SDS011;21234;48.690;9.016;2024-03-22T05:32:14;4.63;;;3.73;;
705;SDS011;21234;48.690;9.016;2024-03-22T05:34:40;4.63;;;3.10;;
705;SDS011;21234;48.690;9.016;2024-03-22T05:37:06;3.77;;;3.47;;
705;SDS011;21234;48.690;9.016;2024-03-22T05:39:34;4.90;;;3.87;;
705;SDS011;21234;48.690;9.016;2024-03-22T05:42:00;4.53;;;3.33;;
705;SDS011;21234;48.690;9.016;2024-03-22T05:44:26;6.90;;;4.47;;
705;SDS011;21234;48.690;9.016;2024-03-22T05:46:53;5.10;;;3.97;;
705;SDS011;21234;48.690;9.016;2024-03-22T05:49:21;5.53;;;3.53;;
705;SDS011;21234;48.690;9.016;2024-03-22T05:51:47;4.70;;;3.73;;
705;SDS011;21234;48.690;9.016;2024-03-22T05:54:13;5.47;;;2.93;;
705;SDS011;21234;48.690;9.016;2024-03-22T05:56:39;3.70;;;2.43;;
705;SDS011;21234;48.690;9.016;2024-03-22T05:59:06;9.07;;;4.30;;
705;SDS011;21234;48.690;9.016;2024-03-22T06:01:32;4.83;;;3.10;;
705;SDS011;21234;48.690;9.016;2024-03-22T06:03:58;4.33;;;3.00;;
705;SDS011;21234;48.690;9.016;2024-03-22T06:06:26;7.40;;;4.07;;
705;SDS011;21234;48.690;9.016;2024-03-22T06:08:53;5.80;;;3.87;;
705;SDS011;21234;48.690;9.016;2024-03-22T06:11:19;5.27;;;3.77;;
705;SDS011;21234;48.690;9.016;2024-03-22T06:13:47;4.17;;;2.93;;
705;SDS011;21234;48.690;9.016;2024-03-22T06:16:12;4.90;;;3.60;;
705;SDS011;21234;48.690;9.016;2024-03-22T06:18:39;5.40;;;4.40;;
705;SDS011;21234;48.690;9.016;2024-03-22T06:21:05;10.93;;;4.00;;
705;SDS011;21234;48.690;9.016;2024-03-22T06:23:33;5.67;;;4.33;;
705;SDS011;21234;48.690;9.016;2024-03-22T06:25:59;6.27;;;3.60;;
705;SDS011;21234;48.690;9.016;2024-03-22T06:28:27;5.20;;;4.57;;
705;SDS011;21234;48.690;9.016;2024-03-22T06:30:53;3.50;;;3.17;;
705;SDS011;21234;48.690;9.016;2024-03-22T06:33:20;4.37;;;3.73;;
705;SDS011;21234;48.690;9.016;2024-03-22T06:35:46;6.83;;;3.90;;
705;SDS011;21234;48.690;9.016;2024-03-22T06:38:13;6.90;;;5.03;;
705;SDS011;21234;48.690;9.016;2024-03-22T06:40:40;5.77;;;4.77;;
705;SDS011;21234;48.690;9.016;2024-03-22T06:43:07;6.30;;;4.47;;
705;SDS011;21234;48.690;9.016;2024-03-22T06:45:34;6.83;;;4.43;;
705;SDS011;21234;48.690;9.016;2024-03-22T06:48:00;6.30;;;5.33;;
705;SDS011;21234;48.690;9.016;2024-03-22T06:50:26;5.57;;;4.93;;
705;SDS011;21234;48.690;9.016;2024-03-22T06:52:53;5.73;;;4.03;;
705;SDS011;21234;48.690;9.016;2024-03-22T06:55:18;6.30;;;4.90;;
705;SDS011;21234;48.690;9.016;2024-03-22T06:57:47;5.80;;;3.87;;
705;SDS011;21234;48.690;9.016;2024-03-22T07:00:14;6.63;;;5.17;;
705;SDS011;21234;48.690;9.016;2024-03-22T07:02:41;5.80;;;4.57;;
705;SDS011;21234;48.690;9.016;2024-03-22T07:05:08;6.80;;;4.67;;
705;SDS011;21234;48.690;9.016;2024-03-22T07:07:35;4.70;;;4.30;;
705;SDS011;21234;48.690;9.016;2024-03-22T07:10:01;4.00;;;3.50;;
705;SDS011;21234;48.690;9.016;2024-03-22T07:12:28;6.73;;;4.03;;
705;SDS011;21234;48.690;9.016;2024-03-22T07:14:55;3.93;;;2.93;;
705;SDS011;21234;48.690;9.016;2024-03-22T07:17:22;3.97;;;3.30;;
705;SDS011;21234;48.690;9.016;2024-03-22T07:19:49;4.47;;;3.47;;
705;SDS011;21234;48.690;9.016;2024-03-22T07:22:17;3.57;;;3.27;;
705;SDS011;21234;48.690;9.016;2024-03-22T07:24:42;4.83;;;4.33;;
705;SDS011;21234;48.690;9.016;2024-03-22T07:27:09;5.00;;;3.40;;
705;SDS011;21234;48.690;9.016;2024-03-22T07:29:35;6.67;;;4.30;;
705;SDS011;21234;48.690;9.016;2024-03-22T07:32:04;7.27;;;4.33;;
705;SDS011;21234;48.690;9.016;2024-03-22T07:34:31;5.40;;;3.40;;
705;SDS011;21234;48.690;9.016;2024-03-22T07:36:57;4.93;;;3.23;;
705;SDS011;21234;48.690;9.016;2024-03-22T07:39:23;4.27;;;3.63;;
705;SDS011;21234;48.690;9.016;2024-03-22T07:41:50;4.40;;;3.90;;
705;SDS011;21234;48.690;9.016;2024-03-22T07:44:16;4.20;;;3.20;;
705;SDS011;21234;48.690;9.016;2024-03-22T07:46:44;7.60;;;3.83;;
705;SDS011;21234;48.690;9.016;2024-03-22T07:49:12;3.57;;;3.23;;
705;SDS011;21234;48.690;9.016;2024-03-22T07:51:39;4.80;;;4.17;;
705;SDS011;21234;48.690;9.016;2024-03-22T07:54:04;6.07;;;4.20;;
705;SDS011;21234;48.690;9.016;2024-03-22T07:56:31;6.57;;;3.87;;
705;SDS011;21234;48.690;9.016;2024-03-22T07:58:57;5.00;;;2.87;;
705;SDS011;21234;48.690;9.016;2024-03-22T08:01:23;3.83;;;3.50;;
705;SDS011;21234;48.690;9.016;2024-03-22T08:03:49;4.20;;;3.83;;
705;SDS011;21234;48.690;9.016;2024-03-22T08:06:18;4.97;;;3.67;;
705;SDS011;21234;48.690;9.016;2024-03-22T08:08:45;3.80;;;3.00;;
705;SDS011;21234;48.690;9.016;2024-03-22T08:11:10;5.40;;;3.93;;
705;SDS011;21234;48.690;9.016;2024-03-22T08:13:37;3.00;;;2.80;;
705;SDS011;21234;48.690;9.016;2024-03-22T08:16:03;2.73;;;2.30;;
705;SDS011;21234;48.690;9.016;2024-03-22T08:18:31;4.03;;;2.83;;
705;SDS011;21234;48.690;9.016;2024-03-22T08:20:57;4.23;;;3.40;;
705;SDS011;21234;48.690;9.016;2024-03-22T08:23:26;5.20;;;2.97;;
705;SDS011;21234;48.690;9.016;2024-03-22T08:25:52;4.83;;;3.43;;
705;SDS011;21234;48.690;9.016;2024-03-22T08:28:18;3.30;;;2.87;;
705;SDS011;21234;48.690;9.016;2024-03-22T08:30:44;3.43;;;2.80;;
705;SDS011;21234;48.690;9.016;2024-03-22T08:33:11;3.63;;;3.30;;
705;SDS011;21234;48.690;9.016;2024-03-22T08:35:37;4.17;;;3.07;;
705;SDS011;21234;48.690;9.016;2024-03-22T08:38:04;3.20;;;2.63;;
705;SDS011;21234;48.690;9.016;2024-03-22T08:40:36;3.57;;;2.37;;
705;SDS011;21234;48.690;9.016;2024-03-22T08:43:03;3.13;;;2.80;;
705;SDS011;21234;48.690;9.016;2024-03-22T08:45:29;3.83;;;3.10;;
705;SDS011;21234;48.690;9.016;2024-03-22T08:47:55;3.90;;;3.03;;
705;SDS011;21234;48.690;9.016;2024-03-22T08:50:21;5.20;;;2.93;;
705;SDS011;21234;48.690;9.016;2024-03-22T08:52:48;6.40;;;3.27;;
705;SDS011;21234;48.690;9.016;2024-03-22T08:55:14;2.90;;;2.37;;
705;SDS011;21234;48.690;9.016;2024-03-22T08:57:42;4.77;;;2.73;;
705;SDS011;21234;48.690;9.016;2024-03-22T09:00:09;4.37;;;2.70;;
705;SDS011;21234;48.690;9.016;2024-03-22T09:02:36;2.67;;;2.40;;
705;SDS011;21234;48.690;9.016;2024-03-22T09:05:03;3.73;;;2.33;;
705;SDS011;21234;48.690;9.016;2024-03-22T09:07:30;3.67;;;2.33;;
705;SDS011;21234;48.690;9.016;2024-03-22T09:09:55;4.53;;;2.80;;
705;SDS011;21234;48.690;9.016;2024-03-22T09:12:22;3.93;;;2.63;;
705;SDS011;21234;48.690;9.016;2024-03-22T09:14:49;4.03;;;2.87;;
705;SDS011;21234;48.690;9.016;2024-03-22T09:17:16;2.83;;;2.40;;
705;SDS011;21234;48.690;9.016;2024-03-22T09:19:42;4.83;;;3.13;;
705;SDS011;21234;48.690;9.016;2024-03-22T09:22:09;3.67;;;2.63;;
705;SDS011;21234;48.690;9.016;2024-03-22T09:24:35;3.43;;;2.13;;
705;SDS011;21234;48.690;9.016;2024-03-22T09:27:02;3.13;;;2.57;;
705;SDS011;21234;48.690;9.016;2024-03-22T09:29:33;5.73;;;2.67;;
705;SDS011;21234;48.690;9.016;2024-03-22T09:32:01;3.57;;;2.60;;
705;SDS011;21234;48.690;9.016;2024-03-22T09:34:27;3.37;;;2.53;;
705;SDS011;21234;48.690;9.016;2024-03-22T09:36:54;3.43;;;2.60;;
705;SDS011;21234;48.690;9.016;2024-03-22T09:39:20;2.40;;;1.97;;
705;SDS011;21234;48.690;9.016;2024-03-22T09:41:47;4.33;;;3.60;;
705;SDS011;21234;48.690;9.016;2024-03-22T09:44:14;2.60;;;2.40;;
705;SDS011;21234;48.690;9.016;2024-03-22T09:46:44;2.80;;;2.50;;
705;SDS011;21234;48.690;9.016;2024-03-22T09:49:13;3.20;;;2.57;;
705;SDS011;21234;48.690;9.016;2024-03-22T09:51:40;2.97;;;2.70;;
705;SDS011;21234;48.690;9.016;2024-03-22T09:54:08;4.77;;;3.10;;
705;SDS011;21234;48.690;9.016;2024-03-22T09:56:35;5.10;;;2.67;;
705;SDS011;21234;48.690;9.016;2024-03-22T09:59:04;3.10;;;2.80;;
705;SDS011;21234;48.690;9.016;2024-03-22T10:01:31;4.73;;;3.43;;
705;SDS011;21234;48.690;9.016;2024-03-22T10:03:59;3.73;;;2.87;;
705;SDS011;21234;48.690;9.016;2024-03-22T10:06:27;3.90;;;2.67;;
705;SDS011;21234;48.690;9.016;2024-03-22T10:08:54;7.00;;;2.63;;
705;SDS011;21234;48.690;9.016;2024-03-22T10:11:21;4.57;;;2.77;;
705;SDS011;21234;48.690;9.016;2024-03-22T10:13:47;3.70;;;2.93;;
705;SDS011;21234;48.690;9.016;2024-03-22T10:16:16;4.53;;;2.60;;
705;SDS011;21234;48.690;9.016;2024-03-22T10:18:42;2.57;;;2.17;;
705;SDS011;21234;48.690;9.016;2024-03-22T10:21:09;3.50;;;2.33;;
705;SDS011;21234;48.690;9.016;2024-03-22T10:23:36;3.20;;;2.40;;
705;SDS011;21234;48.690;9.016;2024-03-22T10:26:03;3.93;;;2.70;;
705;SDS011;21234;48.690;9.016;2024-03-22T10:28:29;1.83;;;1.73;;
705;SDS011;21234;48.690;9.016;2024-03-22T10:30:56;2.30;;;1.90;;
705;SDS011;21234;48.690;9.016;2024-03-22T10:33:21;2.90;;;2.50;;
705;SDS011;21234;48.690;9.016;2024-03-22T10:35:49;3.43;;;2.90;;
705;SDS011;21234;48.690;9.016;2024-03-22T10:38:16;4.73;;;3.20;;
705;SDS011;21234;48.690;9.016;2024-03-22T10:40:46;4.90;;;2.40;;
705;SDS011;21234;48.690;9.016;2024-03-22T10:43:13;3.27;;;2.80;;
705;SDS011;21234;48.690;9.016;2024-03-22T10:45:40;3.43;;;2.87;;
705;SDS011;21234;48.690;9.016;2024-03-22T10:48:08;4.60;;;2.13;;
705;SDS011;21234;48.690;9.016;2024-03-22T10:50:38;2.50;;;2.03;;
705;SDS011;21234;48.690;9.016;2024-03-22T10:53:05;3.10;;;2.70;;
705;SDS011;21234;48.690;9.016;2024-03-22T10:55:34;4.47;;;2.60;;
705;SDS011;21234;48.690;9.016;2024-03-22T10:58:04;3.40;;;2.57;;
705;SDS011;21234;48.690;9.016;2024-03-22T11:00:31;4.40;;;3.10;;
705;SDS011;21234;48.690;9.016;2024-03-22T11:02:58;3.70;;;2.70;;
705;SDS011;21234;48.690;9.016;2024-03-22T11:05:25;2.43;;;2.23;;
705;SDS011;21234;48.690;9.016;2024-03-22T11:07:58;1.83;;;1.73;;
705;SDS011;21234;48.690;9.016;2024-03-22T11:10:26;1.97;;;1.77;;
705;SDS011;21234;48.690;9.016;2024-03-22T11:12:55;2.30;;;2.03;;
705;SDS011;21234;48.690;9.016;2024-03-22T11:15:23;3.00;;;2.23;;
705;SDS011;21234;48.690;9.016;2024-03-22T11:17:49;3.57;;;2.83;;
705;SDS011;21234;48.690;9.016;2024-03-22T11:20:15;5.03;;;4.07;;
705;SDS011;21234;48.690;9.016;2024-03-22T11:22:41;2.07;;;1.93;;
705;SDS011;21234;48.690;9.016;2024-03-22T11:25:09;3.50;;;2.40;;
705;SDS011;21234;48.690;9.016;2024-03-22T11:27:35;3.47;;;2.90;;
705;SDS011;21234;48.690;9.016;2024-03-22T11:30:01;5.43;;;2.23;;
705;SDS011;21234;48.690;9.016;2024-03-22T11:32:29;2.23;;;2.03;;
705;SDS011;21234;48.690;9.016;2024-03-22T11:34:56;2.20;;;2.00;;
705;SDS011;21234;48.690;9.016;2024-03-22T11:37:22;3.37;;;2.40;;
705;SDS011;21234;48.690;9.016;2024-03-22T11:39:49;3.87;;;2.43;;
705;SDS011;21234;48.690;9.016;2024-03-22T11:42:14;3.13;;;2.57;;
705;SDS011;21234;48.690;9.016;2024-03-22T11:44:43;2.10;;;1.90;;
705;SDS011;21234;48.690;9.016;2024-03-22T11:47:09;1.27;;;1.17;;
705;SDS011;21234;48.690;9.016;2024-03-22T11:49:37;1.83;;;1.40;;
705;SDS011;21234;48.690;9.016;2024-03-22T11:52:03;1.40;;;1.30;;
705;SDS011;21234;48.690;9.016;2024-03-22T11:54:30;3.60;;;1.73;;
705;SDS011;21234;48.690;9.016;2024-03-22T11:56:56;1.87;;;1.33;;
705;SDS011;21234;48.690;9.016;2024-03-22T11:59:23;3.17;;;2.07;;
705;SDS011;21234;48.690;9.016;2024-03-22T12:01:48;1.60;;;1.50;;
705;SDS011;21234;48.690;9.016;2024-03-22T12:04:15;5.40;;;1.57;;
705;SDS011;21234;48.690;9.016;2024-03-22T12:06:42;2.77;;;1.50;;
705;SDS011;21234;48.690;9.016;2024-03-22T12:09:10;1.63;;;1.53;;
705;SDS011;21234;48.690;9.016;2024-03-22T12:11:37;2.33;;;1.53;;
705;SDS011;21234;48.690;9.016;2024-03-22T12:14:04;1.97;;;1.87;;
705;SDS011;21234;48.690;9.016;2024-03-22T12:16:30;2.43;;;2.03;;
705;SDS011;21234;48.690;9.016;2024-03-22T12:18:57;2.73;;;2.30;;
705;SDS011;21234;48.690;9.016;2024-03-22T12:21:23;1.83;;;1.70;;
705;SDS011;21234;48.690;9.016;2024-03-22T12:23:51;1.50;;;1.40;;
705;SDS011;21234;48.690;9.016;2024-03-22T12:26:16;2.30;;;1.70;;
705;SDS011;21234;48.690;9.016;2024-03-22T12:28:43;2.50;;;2.27;;
705;SDS011;21234;48.690;9.016;2024-03-22T12:31:09;1.80;;;1.50;;
705;SDS011;21234;48.690;9.016;2024-03-22T12:33:36;3.73;;;2.40;;
705;SDS011;21234;48.690;9.016;2024-03-22T12:36:02;2.00;;;1.67;;
705;SDS011;21234;48.690;9.016;2024-03-22T12:38:29;2.07;;;1.87;;
705;SDS011;21234;48.690;9.016;2024-03-22T12:40:56;1.90;;;1.47;;
705;SDS011;21234;48.690;9.016;2024-03-22T12:43:23;2.10;;;1.83;;
705;SDS011;21234;48.690;9.016;2024-03-22T12:45:49;1.63;;;1.50;;
705;SDS011;21234;48.690;9.016;2024-03-22T12:48:16;1.70;;;1.50;;
705;SDS011;21234;48.690;9.016;2024-03-22T12:50:42;1.77;;;1.30;;
705;SDS011;21234;48.690;9.016;2024-03-22T12:53:09;2.23;;;1.80;;
705;SDS011;21234;48.690;9.016;2024-03-22T12:55:34;1.17;;;1.07;;
705;SDS011;21234;48.690;9.016;2024-03-22T12:58:03;2.17;;;1.60;;
705;SDS011;21234;48.690;9.016;2024-03-22T13:00:29;2.40;;;1.20;;
705;SDS011;21234;48.690;9.016;2024-03-22T13:02:58;1.90;;;1.47;;
705;SDS011;21234;48.690;9.016;2024-03-22T13:05:24;1.53;;;1.43;;
705;SDS011;21234;48.690;9.016;2024-03-22T13:07:52;1.70;;;1.47;;
705;SDS011;21234;48.690;9.016;2024-03-22T13:10:17;2.07;;;1.20;;
705;SDS011;21234;48.690;9.016;2024-03-22T13:12:44;1.83;;;1.60;;
705;SDS011;21234;48.690;9.016;2024-03-22T13:15:12;1.80;;;1.60;;
705;SDS011;21234;48.690;9.016;2024-03-22T13:17:39;1.27;;;0.93;;
705;SDS011;21234;48.690;9.016;2024-03-22T13:20:05;1.83;;;1.47;;
705;SDS011;21234;48.690;9.016;2024-03-22T13:22:35;2.60;;;2.30;;
705;SDS011;21234;48.690;9.016;2024-03-22T13:25:01;1.70;;;1.40;;
705;SDS011;21234;48.690;9.016;2024-03-22T13:27:31;1.50;;;1.40;;
705;SDS011;21234;48.690;9.016;2024-03-22T13:29:57;2.60;;;1.63;;
705;SDS011;21234;48.690;9.016;2024-03-22T13:32:25;1.63;;;1.50;;
705;SDS011;21234;48.690;9.016;2024-03-22T13:34:51;4.53;;;1.90;;
705;SDS011;21234;48.690;9.016;2024-03-22T13:37:17;1.77;;;1.37;;
705;SDS011;21234;48.690;9.016;2024-03-22T13:39:43;2.60;;;1.63;;
705;SDS011;21234;48.690;9.016;2024-03-22T13:42:14;2.10;;;1.53;;
705;SDS011;21234;48.690;9.016;2024-03-22T13:44:40;1.50;;;1.40;;
705;SDS011;21234;48.690;9.016;2024-03-22T13:47:07;2.00;;;0.90;;
705;SDS011;21234;48.690;9.016;2024-03-22T13:49:34;3.37;;;1.50;;
705;SDS011;21234;48.690;9.016;2024-03-22T13:52:00;2.10;;;1.43;;
705;SDS011;21234;48.690;9.016;2024-03-22T13:54:26;1.27;;;1.17;;
705;SDS011;21234;48.690;9.016;2024-03-22T13:56:53;1.73;;;1.30;;
705;SDS011;21234;48.690;9.016;2024-03-22T13:59:18;1.43;;;1.30;;
705;SDS011;21234;48.690;9.016;2024-03-22T14:01:45;1.67;;;1.57;;
705;SDS011;21234;48.690;9.016;2024-03-22T14:04:12;1.50;;;1.30;;
705;SDS011;21234;48.690;9.016;2024-03-22T14:06:41;1.37;;;0.80;;
705;SDS011;21234;48.690;9.016;2024-03-22T14:09:07;1.10;;;1.00;;
705;SDS011;21234;48.690;9.016;2024-03-22T14:11:35;1.00;;;1.00;;
705;SDS011;21234;48.690;9.016;2024-03-22T14:14:01;2.67;;;1.40;;
705;SDS011;21234;48.690;9.016;2024-03-22T14:16:28;1.90;;;1.57;;
705;SDS011;21234;48.690;9.016;2024-03-22T14:18:55;2.40;;;1.87;;
705;SDS011;21234;48.690;9.016;2024-03-22T14:21:21;1.77;;;1.23;;
705;SDS011;21234;48.690;9.016;2024-03-22T14:23:49;1.20;;;0.80;;
705;SDS011;21234;48.690;9.016;2024-03-22T14:26:16;1.10;;;0.80;;
705;SDS011;21234;48.690;9.016;2024-03-22T14:28:42;2.00;;;0.93;;
705;SDS011;21234;48.690;9.016;2024-03-22T14:31:10;0.87;;;0.63;;
705;SDS011;21234;48.690;9.016;2024-03-22T14:33:36;0.60;;;0.60;;
705;SDS011;21234;48.690;9.016;2024-03-22T14:36:04;0.80;;;0.50;;
705;SDS011;21234;48.690;9.016;2024-03-22T14:38:31;0.87;;;0.83;;
705;SDS011;21234;48.690;9.016;2024-03-22T14:40:59;0.83;;;0.50;;
705;SDS011;21234;48.690;9.016;2024-03-22T14:43:25;1.63;;;0.60;;
705;SDS011;21234;48.690;9.016;2024-03-22T14:45:53;0.60;;;0.50;;
705;SDS011;21234;48.690;9.016;2024-03-22T14:48:19;0.80;;;0.60;;
705;SDS011;21234;48.690;9.016;2024-03-22T14:50:46;0.50;;;0.33;;
705;SDS011;21234;48.690;9.016;2024-03-22T14:53:12;0.63;;;0.60;;
705;SDS011;21234;48.690;9.016;2024-03-22T14:55:39;0.93;;;0.67;;
705;SDS011;21234;48.690;9.016;2024-03-22T14:58:06;0.70;;;0.67;;
705;SDS011;21234;48.690;9.016;2024-03-22T15:00:33;0.80;;;0.60;;
705;SDS011;21234;48.690;9.016;2024-03-22T15:02:59;1.00;;;0.80;;
705;SDS011;21234;48.690;9.016;2024-03-22T15:05:25;1.00;;;0.73;;
705;SDS011;21234;48.690;9.016;2024-03-22T15:07:51;0.77;;;0.63;;
705;SDS011;21234;48.690;9.016;2024-03-22T15:10:18;0.73;;;0.63;;
705;SDS011;21234;48.690;9.016;2024-03-22T15:12:45;0.70;;;0.70;;